sensor_id;sensor_type;location;lat;lon;timestamp;temperature;humidity
360;DHT22;168;48.872;9.226;2023-03-12T00:00:23;1.70;90.90
360;DHT22;168;48.872;9.226;2023-03-12T00:02:51;1.60;91.20
360;DHT22;168;48.872;9.226;2023-03-12T00:05:18;1.60;91.60
360;DHT22;168;48.872;9.226;2023-03-12T00:07:47;1.60;91.80
360;DHT22;168;48.872;9.226;2023-03-12T00:10:15;1.60;92.00
360;DHT22;168;48.872;9.226;2023-03-12T00:12:43;1.60;92.20
360;DHT22;168;48.872;9.226;2023-03-12T00:15:11;1.50;92.50
360;DHT22;168;48.872;9.226;2023-03-12T00:17:39;1.50;92.80
360;DHT22;168;48.872;9.226;2023-03-12T00:20:08;1.40;93.00
360;DHT22;168;48.872;9.226;2023-03-12T00:22:37;1.40;93.20
360;DHT22;168;48.872;9.226;2023-03-12T00:25:09;1.40;93.20
360;DHT22;168;48.872;9.226;2023-03-12T00:27:37;1.40;93.10
360;DHT22;168;48.872;9.226;2023-03-12T00:30:05;1.40;93.10
360;DHT22;168;48.872;9.226;2023-03-12T00:32:33;1.30;93.00
360;DHT22;168;48.872;9.226;2023-03-12T00:35:03;1.30;93.10
360;DHT22;168;48.872;9.226;2023-03-12T00:37:31;1.20;93.30
360;DHT22;168;48.872;9.226;2023-03-12T00:39:59;1.10;93.60
360;DHT22;168;48.872;9.226;2023-03-12T00:42:27;1.10;93.70
360;DHT22;168;48.872;9.226;2023-03-12T00:44:54;1.10;93.70
360;DHT22;168;48.872;9.226;2023-03-12T00:47:22;1.00;94.00
360;DHT22;168;48.872;9.226;2023-03-12T00:49:49;1.10;94.10
360;DHT22;168;48.872;9.226;2023-03-12T00:52:18;1.10;94.20
360;DHT22;168;48.872;9.226;2023-03-12T00:54:46;1.10;94.00
360;DHT22;168;48.872;9.226;2023-03-12T00:57:13;1.00;94.30
360;DHT22;168;48.872;9.226;2023-03-12T00:59:41;1.00;94.30
360;DHT22;168;48.872;9.226;2023-03-12T01:02:09;0.90;94.40
360;DHT22;168;48.872;9.226;2023-03-12T01:04:37;1.00;94.30
360;DHT22;168;48.872;9.226;2023-03-12T01:07:04;1.00;94.20
360;DHT22;168;48.872;9.226;2023-03-12T01:09:33;0.90;94.30
360;DHT22;168;48.872;9.226;2023-03-12T01:12:00;1.00;94.30
360;DHT22;168;48.872;9.226;2023-03-12T01:14:28;1.00;94.30
360;DHT22;168;48.872;9.226;2023-03-12T01:16:56;1.00;94.20
360;DHT22;168;48.872;9.226;2023-03-12T01:19:23;0.90;94.30
360;DHT22;168;48.872;9.226;2023-03-12T01:21:51;0.90;94.50
360;DHT22;168;48.872;9.226;2023-03-12T01:24:19;0.90;94.60
360;DHT22;168;48.872;9.226;2023-03-12T01:26:47;0.90;94.60
360;DHT22;168;48.872;9.226;2023-03-12T01:29:15;0.90;94.60
360;DHT22;168;48.872;9.226;2023-03-12T01:31:43;1.00;94.60
360;DHT22;168;48.872;9.226;2023-03-12T01:34:11;1.00;94.40
360;DHT22;168;48.872;9.226;2023-03-12T01:36:38;1.00;94.40
360;DHT22;168;48.872;9.226;2023-03-12T01:39:06;1.10;94.40
360;DHT22;168;48.872;9.226;2023-03-12T01:41:33;1.10;94.30
360;DHT22;168;48.872;9.226;2023-03-12T01:44:03;1.10;94.00
360;DHT22;168;48.872;9.226;2023-03-12T01:46:32;1.10;94.10
360;DHT22;168;48.872;9.226;2023-03-12T01:49:02;1.20;94.00
360;DHT22;168;48.872;9.226;2023-03-12T01:51:35;1.20;93.90
360;DHT22;168;48.872;9.226;2023-03-12T01:54:08;1.30;94.00
360;DHT22;168;48.872;9.226;2023-03-12T01:56:37;1.30;94.00
360;DHT22;168;48.872;9.226;2023-03-12T01:59:10;1.40;93.90
360;DHT22;168;48.872;9.226;2023-03-12T02:01:39;1.40;93.90
360;DHT22;168;48.872;9.226;2023-03-12T02:04:07;1.50;93.80
360;DHT22;168;48.872;9.226;2023-03-12T02:06:38;1.50;93.60
360;DHT22;168;48.872;9.226;2023-03-12T02:09:09;1.50;93.60
360;DHT22;168;48.872;9.226;2023-03-12T02:11:38;1.60;93.50
360;DHT22;168;48.872;9.226;2023-03-12T02:14:07;1.60;93.50
360;DHT22;168;48.872;9.226;2023-03-12T02:16:34;1.60;93.60
360;DHT22;168;48.872;9.226;2023-03-12T02:19:04;1.60;93.60
360;DHT22;168;48.872;9.226;2023-03-12T02:21:34;1.60;93.60
360;DHT22;168;48.872;9.226;2023-03-12T02:24:07;1.60;93.60
360;DHT22;168;48.872;9.226;2023-03-12T02:26:40;1.70;93.50
360;DHT22;168;48.872;9.226;2023-03-12T02:29:08;1.70;93.50
360;DHT22;168;48.872;9.226;2023-03-12T02:31:39;1.70;93.50
360;DHT22;168;48.872;9.226;2023-03-12T02:34:08;1.70;93.50
360;DHT22;168;48.872;9.226;2023-03-12T02:36:35;1.80;93.20
360;DHT22;168;48.872;9.226;2023-03-12T02:39:04;1.80;93.10
360;DHT22;168;48.872;9.226;2023-03-12T02:41:34;1.80;93.10
360;DHT22;168;48.872;9.226;2023-03-12T02:44:07;1.80;93.10
360;DHT22;168;48.872;9.226;2023-03-12T02:46:39;1.80;93.20
360;DHT22;168;48.872;9.226;2023-03-12T02:49:07;1.80;93.00
360;DHT22;168;48.872;9.226;2023-03-12T02:51:37;1.80;93.00
360;DHT22;168;48.872;9.226;2023-03-12T02:54:04;1.80;93.00
360;DHT22;168;48.872;9.226;2023-03-12T02:56:32;1.80;93.10
360;DHT22;168;48.872;9.226;2023-03-12T02:59:00;1.80;93.10
360;DHT22;168;48.872;9.226;2023-03-12T03:01:28;1.90;93.00
360;DHT22;168;48.872;9.226;2023-03-12T03:03:59;1.90;92.90
360;DHT22;168;48.872;9.226;2023-03-12T03:06:27;2.00;92.40
360;DHT22;168;48.872;9.226;2023-03-12T03:08:54;1.90;92.60
360;DHT22;168;48.872;9.226;2023-03-12T03:11:22;1.80;92.90
360;DHT22;168;48.872;9.226;2023-03-12T03:13:49;1.70;93.20
360;DHT22;168;48.872;9.226;2023-03-12T03:16:17;1.70;93.40
360;DHT22;168;48.872;9.226;2023-03-12T03:18:46;1.60;93.60
360;DHT22;168;48.872;9.226;2023-03-12T03:21:14;1.60;93.80
360;DHT22;168;48.872;9.226;2023-03-12T03:23:43;1.60;94.00
360;DHT22;168;48.872;9.226;2023-03-12T03:26:10;1.60;94.00
360;DHT22;168;48.872;9.226;2023-03-12T03:28:38;1.60;94.00
360;DHT22;168;48.872;9.226;2023-03-12T03:31:06;1.60;94.00
360;DHT22;168;48.872;9.226;2023-03-12T03:33:35;1.60;94.00
360;DHT22;168;48.872;9.226;2023-03-12T03:36:08;1.70;94.10
360;DHT22;168;48.872;9.226;2023-03-12T03:38:35;1.70;93.80
360;DHT22;168;48.872;9.226;2023-03-12T03:41:03;1.80;93.80
360;DHT22;168;48.872;9.226;2023-03-12T03:43:31;1.80;93.60
360;DHT22;168;48.872;9.226;2023-03-12T03:46:00;1.80;93.60
360;DHT22;168;48.872;9.226;2023-03-12T03:48:28;1.80;93.70
360;DHT22;168;48.872;9.226;2023-03-12T03:50:58;1.90;93.80
360;DHT22;168;48.872;9.226;2023-03-12T03:53:30;1.90;93.70
360;DHT22;168;48.872;9.226;2023-03-12T03:56:04;2.00;93.60
360;DHT22;168;48.872;9.226;2023-03-12T03:58:32;2.10;93.20
360;DHT22;168;48.872;9.226;2023-03-12T04:01:00;2.10;93.20
360;DHT22;168;48.872;9.226;2023-03-12T04:03:28;2.20;93.10
360;DHT22;168;48.872;9.226;2023-03-12T04:05:57;2.20;93.00
360;DHT22;168;48.872;9.226;2023-03-12T04:08:25;2.30;92.60
360;DHT22;168;48.872;9.226;2023-03-12T04:10:55;2.30;92.70
360;DHT22;168;48.872;9.226;2023-03-12T04:13:22;2.30;92.80
360;DHT22;168;48.872;9.226;2023-03-12T04:15:52;2.40;92.60
360;DHT22;168;48.872;9.226;2023-03-12T04:18:19;2.40;92.70
360;DHT22;168;48.872;9.226;2023-03-12T04:20:47;2.40;93.00
360;DHT22;168;48.872;9.226;2023-03-12T04:23:15;2.50;93.00
360;DHT22;168;48.872;9.226;2023-03-12T04:25:42;2.50;92.80
360;DHT22;168;48.872;9.226;2023-03-12T04:28:11;2.60;92.60
360;DHT22;168;48.872;9.226;2023-03-12T04:30:39;2.60;92.40
360;DHT22;168;48.872;9.226;2023-03-12T04:33:07;2.70;92.20
360;DHT22;168;48.872;9.226;2023-03-12T04:35:34;2.70;92.00
360;DHT22;168;48.872;9.226;2023-03-12T04:38:02;2.80;91.80
360;DHT22;168;48.872;9.226;2023-03-12T04:40:30;2.80;91.60
360;DHT22;168;48.872;9.226;2023-03-12T04:42:58;2.80;91.40
360;DHT22;168;48.872;9.226;2023-03-12T04:45:27;2.90;91.20
360;DHT22;168;48.872;9.226;2023-03-12T04:47:55;2.90;91.00
360;DHT22;168;48.872;9.226;2023-03-12T04:50:22;2.90;90.90
360;DHT22;168;48.872;9.226;2023-03-12T04:52:50;3.00;90.70
360;DHT22;168;48.872;9.226;2023-03-12T04:55:18;3.00;90.40
360;DHT22;168;48.872;9.226;2023-03-12T04:57:45;3.10;90.40
360;DHT22;168;48.872;9.226;2023-03-12T05:00:13;3.10;90.20
360;DHT22;168;48.872;9.226;2023-03-12T05:02:42;3.20;90.00
360;DHT22;168;48.872;9.226;2023-03-12T05:05:10;3.20;90.00
360;DHT22;168;48.872;9.226;2023-03-12T05:07:37;3.20;89.90
360;DHT22;168;48.872;9.226;2023-03-12T05:10:05;3.30;89.90
360;DHT22;168;48.872;9.226;2023-03-12T05:12:33;3.30;89.90
360;DHT22;168;48.872;9.226;2023-03-12T05:15:01;3.40;89.90
360;DHT22;168;48.872;9.226;2023-03-12T05:17:28;3.40;89.70
360;DHT22;168;48.872;9.226;2023-03-12T05:19:57;3.50;89.50
360;DHT22;168;48.872;9.226;2023-03-12T05:22:25;3.50;89.20
360;DHT22;168;48.872;9.226;2023-03-12T05:24:52;3.50;89.00
360;DHT22;168;48.872;9.226;2023-03-12T05:27:19;3.50;88.80
360;DHT22;168;48.872;9.226;2023-03-12T05:29:47;3.50;88.90
360;DHT22;168;48.872;9.226;2023-03-12T05:32:14;3.60;88.30
360;DHT22;168;48.872;9.226;2023-03-12T05:34:41;3.60;88.30
360;DHT22;168;48.872;9.226;2023-03-12T05:37:11;3.60;88.80
360;DHT22;168;48.872;9.226;2023-03-12T05:39:38;3.60;88.90
360;DHT22;168;48.872;9.226;2023-03-12T05:42:11;3.60;89.00
360;DHT22;168;48.872;9.226;2023-03-12T05:44:39;3.60;89.10
360;DHT22;168;48.872;9.226;2023-03-12T05:47:07;3.60;89.00
360;DHT22;168;48.872;9.226;2023-03-12T05:49:34;3.70;88.80
360;DHT22;168;48.872;9.226;2023-03-12T05:52:01;3.70;88.90
360;DHT22;168;48.872;9.226;2023-03-12T05:54:30;3.70;89.20
360;DHT22;168;48.872;9.226;2023-03-12T05:56:58;3.80;89.30
360;DHT22;168;48.872;9.226;2023-03-12T05:59:26;3.80;89.40
360;DHT22;168;48.872;9.226;2023-03-12T06:01:53;3.80;89.60
360;DHT22;168;48.872;9.226;2023-03-12T06:04:21;3.90;89.40
360;DHT22;168;48.872;9.226;2023-03-12T06:06:48;3.90;89.50
360;DHT22;168;48.872;9.226;2023-03-12T06:09:15;3.90;89.30
360;DHT22;168;48.872;9.226;2023-03-12T06:11:44;3.90;89.60
360;DHT22;168;48.872;9.226;2023-03-12T06:14:11;4.00;89.80
360;DHT22;168;48.872;9.226;2023-03-12T06:16:39;4.00;89.50
360;DHT22;168;48.872;9.226;2023-03-12T06:19:07;4.10;89.00
360;DHT22;168;48.872;9.226;2023-03-12T06:21:39;4.20;89.00
360;DHT22;168;48.872;9.226;2023-03-12T06:24:07;4.10;89.30
360;DHT22;168;48.872;9.226;2023-03-12T06:26:34;4.20;89.30
360;DHT22;168;48.872;9.226;2023-03-12T06:29:03;4.20;89.40
360;DHT22;168;48.872;9.226;2023-03-12T06:31:31;4.20;89.70
360;DHT22;168;48.872;9.226;2023-03-12T06:33:58;4.20;89.90
360;DHT22;168;48.872;9.226;2023-03-12T06:36:26;4.20;89.90
360;DHT22;168;48.872;9.226;2023-03-12T06:38:53;4.30;89.90
360;DHT22;168;48.872;9.226;2023-03-12T06:41:20;4.30;89.90
360;DHT22;168;48.872;9.226;2023-03-12T06:43:48;4.30;90.20
360;DHT22;168;48.872;9.226;2023-03-12T06:46:19;4.30;90.90
360;DHT22;168;48.872;9.226;2023-03-12T06:48:47;4.30;91.00
360;DHT22;168;48.872;9.226;2023-03-12T06:51:16;4.40;90.90
360;DHT22;168;48.872;9.226;2023-03-12T06:53:44;4.50;91.10
360;DHT22;168;48.872;9.226;2023-03-12T06:56:12;4.50;91.10
360;DHT22;168;48.872;9.226;2023-03-12T06:58:40;4.60;91.40
360;DHT22;168;48.872;9.226;2023-03-12T07:01:08;4.70;91.50
360;DHT22;168;48.872;9.226;2023-03-12T07:03:36;4.70;91.90
360;DHT22;168;48.872;9.226;2023-03-12T07:06:05;4.80;92.20
360;DHT22;168;48.872;9.226;2023-03-12T07:08:38;4.80;92.50
360;DHT22;168;48.872;9.226;2023-03-12T07:11:05;4.80;93.00
360;DHT22;168;48.872;9.226;2023-03-12T07:13:33;4.80;93.60
360;DHT22;168;48.872;9.226;2023-03-12T07:16:00;4.80;94.10
360;DHT22;168;48.872;9.226;2023-03-12T07:18:28;4.90;94.50
360;DHT22;168;48.872;9.226;2023-03-12T07:20:57;4.90;94.80
360;DHT22;168;48.872;9.226;2023-03-12T07:23:25;5.00;95.00
360;DHT22;168;48.872;9.226;2023-03-12T07:25:53;5.00;94.90
360;DHT22;168;48.872;9.226;2023-03-12T07:28:21;5.10;94.90
360;DHT22;168;48.872;9.226;2023-03-12T07:30:49;5.10;94.80
360;DHT22;168;48.872;9.226;2023-03-12T07:33:18;5.20;94.80
360;DHT22;168;48.872;9.226;2023-03-12T07:35:47;5.20;94.70
360;DHT22;168;48.872;9.226;2023-03-12T07:38:16;5.40;94.40
360;DHT22;168;48.872;9.226;2023-03-12T07:40:44;5.50;93.80
360;DHT22;168;48.872;9.226;2023-03-12T07:43:11;5.40;93.70
360;DHT22;168;48.872;9.226;2023-03-12T07:45:39;5.50;94.00
360;DHT22;168;48.872;9.226;2023-03-12T07:48:07;5.60;94.10
360;DHT22;168;48.872;9.226;2023-03-12T07:50:35;5.70;94.00
360;DHT22;168;48.872;9.226;2023-03-12T07:53:02;5.80;93.80
360;DHT22;168;48.872;9.226;2023-03-12T07:55:32;5.90;93.60
360;DHT22;168;48.872;9.226;2023-03-12T07:58:03;6.00;93.30
360;DHT22;168;48.872;9.226;2023-03-12T08:00:30;6.00;93.00
360;DHT22;168;48.872;9.226;2023-03-12T08:02:58;6.10;92.90
360;DHT22;168;48.872;9.226;2023-03-12T08:05:27;6.20;93.00
360;DHT22;168;48.872;9.226;2023-03-12T08:07:57;6.30;93.00
360;DHT22;168;48.872;9.226;2023-03-12T08:10:26;6.40;92.70
360;DHT22;168;48.872;9.226;2023-03-12T08:12:54;6.50;92.60
360;DHT22;168;48.872;9.226;2023-03-12T08:15:22;6.60;92.50
360;DHT22;168;48.872;9.226;2023-03-12T08:17:52;6.70;92.40
360;DHT22;168;48.872;9.226;2023-03-12T08:20:21;6.70;92.20
360;DHT22;168;48.872;9.226;2023-03-12T08:22:49;6.70;92.50
360;DHT22;168;48.872;9.226;2023-03-12T08:25:16;6.80;92.30
360;DHT22;168;48.872;9.226;2023-03-12T08:27:49;6.80;92.20
360;DHT22;168;48.872;9.226;2023-03-12T08:30:20;6.80;92.40
360;DHT22;168;48.872;9.226;2023-03-12T08:32:48;6.80;92.70
360;DHT22;168;48.872;9.226;2023-03-12T08:35:18;6.90;92.80
360;DHT22;168;48.872;9.226;2023-03-12T08:37:45;6.90;92.80
360;DHT22;168;48.872;9.226;2023-03-12T08:40:13;6.90;92.90
360;DHT22;168;48.872;9.226;2023-03-12T08:42:40;6.90;93.70
360;DHT22;168;48.872;9.226;2023-03-12T08:45:10;6.90;93.90
360;DHT22;168;48.872;9.226;2023-03-12T08:47:40;6.90;93.80
360;DHT22;168;48.872;9.226;2023-03-12T08:50:09;7.00;93.80
360;DHT22;168;48.872;9.226;2023-03-12T08:52:38;7.10;93.90
360;DHT22;168;48.872;9.226;2023-03-12T08:55:06;7.20;93.90
360;DHT22;168;48.872;9.226;2023-03-12T08:57:34;7.30;94.20
360;DHT22;168;48.872;9.226;2023-03-12T09:00:02;7.50;94.00
360;DHT22;168;48.872;9.226;2023-03-12T09:02:31;7.60;93.90
360;DHT22;168;48.872;9.226;2023-03-12T09:05:00;7.80;93.70
360;DHT22;168;48.872;9.226;2023-03-12T09:07:27;7.90;93.50
360;DHT22;168;48.872;9.226;2023-03-12T09:09:54;8.10;93.40
360;DHT22;168;48.872;9.226;2023-03-12T09:12:22;8.30;93.10
360;DHT22;168;48.872;9.226;2023-03-12T09:14:50;8.40;92.70
360;DHT22;168;48.872;9.226;2023-03-12T09:17:18;8.50;92.50
360;DHT22;168;48.872;9.226;2023-03-12T09:19:46;8.70;92.40
360;DHT22;168;48.872;9.226;2023-03-12T09:22:14;8.80;91.70
360;DHT22;168;48.872;9.226;2023-03-12T09:24:42;8.90;91.60
360;DHT22;168;48.872;9.226;2023-03-12T09:27:09;9.00;91.50
360;DHT22;168;48.872;9.226;2023-03-12T09:29:37;9.10;91.20
360;DHT22;168;48.872;9.226;2023-03-12T09:32:05;9.20;91.00
360;DHT22;168;48.872;9.226;2023-03-12T09:34:32;9.30;91.00
360;DHT22;168;48.872;9.226;2023-03-12T09:37:00;9.30;90.70
360;DHT22;168;48.872;9.226;2023-03-12T09:39:28;9.40;90.50
360;DHT22;168;48.872;9.226;2023-03-12T09:41:56;9.50;90.00
360;DHT22;168;48.872;9.226;2023-03-12T09:44:28;9.50;89.80
360;DHT22;168;48.872;9.226;2023-03-12T09:47:02;9.50;90.40
360;DHT22;168;48.872;9.226;2023-03-12T09:49:37;9.50;90.30
360;DHT22;168;48.872;9.226;2023-03-12T09:52:17;9.50;90.30
360;DHT22;168;48.872;9.226;2023-03-12T09:54:53;9.60;90.40
360;DHT22;168;48.872;9.226;2023-03-12T09:57:24;9.60;90.10
360;DHT22;168;48.872;9.226;2023-03-12T09:59:55;9.70;90.20
360;DHT22;168;48.872;9.226;2023-03-12T10:02:37;9.70;90.50
360;DHT22;168;48.872;9.226;2023-03-12T10:05:10;9.80;90.20
360;DHT22;168;48.872;9.226;2023-03-12T10:07:46;9.90;90.30
360;DHT22;168;48.872;9.226;2023-03-12T10:10:38;9.90;90.80
360;DHT22;168;48.872;9.226;2023-03-12T10:13:20;10.00;90.70
360;DHT22;168;48.872;9.226;2023-03-12T10:16:01;10.00;90.80
360;DHT22;168;48.872;9.226;2023-03-12T10:18:41;10.10;90.50
360;DHT22;168;48.872;9.226;2023-03-12T10:21:18;10.20;90.50
360;DHT22;168;48.872;9.226;2023-03-12T10:23:56;10.20;90.30
360;DHT22;168;48.872;9.226;2023-03-12T10:26:32;10.20;90.40
360;DHT22;168;48.872;9.226;2023-03-12T10:29:03;10.10;90.80
360;DHT22;168;48.872;9.226;2023-03-12T10:31:36;10.20;91.00
360;DHT22;168;48.872;9.226;2023-03-12T10:34:13;10.30;91.10
360;DHT22;168;48.872;9.226;2023-03-12T10:36:41;10.40;91.00
360;DHT22;168;48.872;9.226;2023-03-12T10:39:13;10.50;90.70
360;DHT22;168;48.872;9.226;2023-03-12T10:41:45;10.60;90.80
360;DHT22;168;48.872;9.226;2023-03-12T10:44:17;10.60;90.90
360;DHT22;168;48.872;9.226;2023-03-12T10:47:04;10.70;91.40
360;DHT22;168;48.872;9.226;2023-03-12T10:49:34;10.70;91.60
360;DHT22;168;48.872;9.226;2023-03-12T10:52:06;10.70;91.60
360;DHT22;168;48.872;9.226;2023-03-12T10:54:41;10.60;91.60
360;DHT22;168;48.872;9.226;2023-03-12T10:57:12;10.60;91.70
360;DHT22;168;48.872;9.226;2023-03-12T10:59:42;10.70;91.80
360;DHT22;168;48.872;9.226;2023-03-12T11:02:29;10.70;91.80
360;DHT22;168;48.872;9.226;2023-03-12T11:04:58;10.60;92.00
360;DHT22;168;48.872;9.226;2023-03-12T11:07:28;10.60;92.20
360;DHT22;168;48.872;9.226;2023-03-12T11:10:17;10.60;92.30
360;DHT22;168;48.872;9.226;2023-03-12T11:12:58;10.60;92.60
360;DHT22;168;48.872;9.226;2023-03-12T11:15:29;10.70;92.80
360;DHT22;168;48.872;9.226;2023-03-12T11:18:22;10.70;92.90
360;DHT22;168;48.872;9.226;2023-03-12T11:20:51;10.80;92.90
360;DHT22;168;48.872;9.226;2023-03-12T11:23:24;11.00;92.90
360;DHT22;168;48.872;9.226;2023-03-12T11:25:54;11.20;92.70
360;DHT22;168;48.872;9.226;2023-03-12T11:28:28;11.50;92.60
360;DHT22;168;48.872;9.226;2023-03-12T11:30:59;11.70;92.20
360;DHT22;168;48.872;9.226;2023-03-12T11:33:27;12.00;92.10
360;DHT22;168;48.872;9.226;2023-03-12T11:36:07;12.20;91.80
360;DHT22;168;48.872;9.226;2023-03-12T11:38:44;12.50;91.60
360;DHT22;168;48.872;9.226;2023-03-12T11:41:29;12.70;91.30
360;DHT22;168;48.872;9.226;2023-03-12T11:44:24;12.90;91.20
360;DHT22;168;48.872;9.226;2023-03-12T11:47:08;13.10;91.00
360;DHT22;168;48.872;9.226;2023-03-12T11:49:48;13.00;91.60
360;DHT22;168;48.872;9.226;2023-03-12T11:52:23;13.00;91.70
360;DHT22;168;48.872;9.226;2023-03-12T11:55:14;12.90;92.10
360;DHT22;168;48.872;9.226;2023-03-12T11:57:51;12.60;92.60
360;DHT22;168;48.872;9.226;2023-03-12T12:00:30;12.30;92.80
360;DHT22;168;48.872;9.226;2023-03-12T12:03:27;12.00;93.20
360;DHT22;168;48.872;9.226;2023-03-12T12:06:01;11.60;93.00
360;DHT22;168;48.872;9.226;2023-03-12T12:08:44;11.60;92.30
360;DHT22;168;48.872;9.226;2023-03-12T12:11:17;11.60;92.40
360;DHT22;168;48.872;9.226;2023-03-12T12:13:54;11.70;92.30
360;DHT22;168;48.872;9.226;2023-03-12T12:16:40;11.80;92.80
360;DHT22;168;48.872;9.226;2023-03-12T12:19:22;11.90;93.20
360;DHT22;168;48.872;9.226;2023-03-12T12:22:02;12.20;93.20
360;DHT22;168;48.872;9.226;2023-03-12T12:24:45;12.30;93.30
360;DHT22;168;48.872;9.226;2023-03-12T12:27:18;12.50;92.80
360;DHT22;168;48.872;9.226;2023-03-12T12:30:09;12.60;92.90
360;DHT22;168;48.872;9.226;2023-03-12T12:32:58;12.60;92.60
360;DHT22;168;48.872;9.226;2023-03-12T12:35:32;12.70;92.10
360;DHT22;168;48.872;9.226;2023-03-12T12:38:03;12.70;91.60
360;DHT22;168;48.872;9.226;2023-03-12T12:40:36;12.80;91.60
360;DHT22;168;48.872;9.226;2023-03-12T12:43:14;12.80;91.30
360;DHT22;168;48.872;9.226;2023-03-12T12:45:46;12.60;91.60
360;DHT22;168;48.872;9.226;2023-03-12T12:48:19;12.60;91.70
360;DHT22;168;48.872;9.226;2023-03-12T12:50:48;12.70;91.60
360;DHT22;168;48.872;9.226;2023-03-12T12:53:21;12.90;91.30
360;DHT22;168;48.872;9.226;2023-03-12T12:55:57;12.70;91.00
360;DHT22;168;48.872;9.226;2023-03-12T12:58:40;12.70;91.30
360;DHT22;168;48.872;9.226;2023-03-12T13:01:12;12.70;91.40
360;DHT22;168;48.872;9.226;2023-03-12T13:03:42;12.70;90.90
360;DHT22;168;48.872;9.226;2023-03-12T13:06:11;12.70;91.00
360;DHT22;168;48.872;9.226;2023-03-12T13:08:59;12.70;91.30
360;DHT22;168;48.872;9.226;2023-03-12T13:11:29;12.70;91.20
360;DHT22;168;48.872;9.226;2023-03-12T13:14:34;12.70;91.20
360;DHT22;168;48.872;9.226;2023-03-12T13:17:20;12.60;91.60
360;DHT22;168;48.872;9.226;2023-03-12T13:19:51;12.50;91.60
360;DHT22;168;48.872;9.226;2023-03-12T13:22:39;12.30;92.40
360;DHT22;168;48.872;9.226;2023-03-12T13:25:21;12.10;93.20
360;DHT22;168;48.872;9.226;2023-03-12T13:27:57;12.10;93.40
360;DHT22;168;48.872;9.226;2023-03-12T13:30:44;11.90;93.40
360;DHT22;168;48.872;9.226;2023-03-12T13:33:13;11.90;93.40
360;DHT22;168;48.872;9.226;2023-03-12T13:36:02;12.10;93.50
360;DHT22;168;48.872;9.226;2023-03-12T13:38:36;12.30;93.40
360;DHT22;168;48.872;9.226;2023-03-12T13:41:05;12.40;93.50
360;DHT22;168;48.872;9.226;2023-03-12T13:43:47;12.60;93.20
360;DHT22;168;48.872;9.226;2023-03-12T13:46:40;12.80;92.70
360;DHT22;168;48.872;9.226;2023-03-12T13:49:20;12.80;91.60
360;DHT22;168;48.872;9.226;2023-03-12T13:52:14;12.90;90.70
360;DHT22;168;48.872;9.226;2023-03-12T13:54:46;13.00;90.20
360;DHT22;168;48.872;9.226;2023-03-12T13:57:25;13.10;89.90
360;DHT22;168;48.872;9.226;2023-03-12T13:59:56;13.30;89.10
360;DHT22;168;48.872;9.226;2023-03-12T14:02:26;13.40;88.20
360;DHT22;168;48.872;9.226;2023-03-12T14:05:02;13.50;87.20
360;DHT22;168;48.872;9.226;2023-03-12T14:08:07;13.60;87.00
360;DHT22;168;48.872;9.226;2023-03-12T14:10:49;13.60;86.20
360;DHT22;168;48.872;9.226;2023-03-12T14:13:32;13.40;86.90
360;DHT22;168;48.872;9.226;2023-03-12T14:16:09;13.30;87.20
360;DHT22;168;48.872;9.226;2023-03-12T14:18:43;13.10;88.00
360;DHT22;168;48.872;9.226;2023-03-12T14:21:14;13.00;88.40
360;DHT22;168;48.872;9.226;2023-03-12T14:23:47;12.80;89.70
360;DHT22;168;48.872;9.226;2023-03-12T14:26:19;12.60;90.70
360;DHT22;168;48.872;9.226;2023-03-12T14:28:56;12.40;91.30
360;DHT22;168;48.872;9.226;2023-03-12T14:31:29;12.30;91.60
360;DHT22;168;48.872;9.226;2023-03-12T14:34:04;12.30;91.20
360;DHT22;168;48.872;9.226;2023-03-12T14:36:38;12.30;91.00
360;DHT22;168;48.872;9.226;2023-03-12T14:39:21;12.40;91.10
360;DHT22;168;48.872;9.226;2023-03-12T14:41:54;12.50;91.10
360;DHT22;168;48.872;9.226;2023-03-12T14:44:23;12.70;91.40
360;DHT22;168;48.872;9.226;2023-03-12T14:46:56;12.90;91.30
360;DHT22;168;48.872;9.226;2023-03-12T14:49:24;13.00;90.60
360;DHT22;168;48.872;9.226;2023-03-12T14:51:54;13.00;90.80
360;DHT22;168;48.872;9.226;2023-03-12T14:54:25;13.10;90.00
360;DHT22;168;48.872;9.226;2023-03-12T14:56:53;13.20;89.30
360;DHT22;168;48.872;9.226;2023-03-12T14:59:27;13.30;89.20
360;DHT22;168;48.872;9.226;2023-03-12T15:02:00;13.40;88.40
360;DHT22;168;48.872;9.226;2023-03-12T15:04:33;13.30;87.90
360;DHT22;168;48.872;9.226;2023-03-12T15:07:03;13.40;88.20
360;DHT22;168;48.872;9.226;2023-03-12T15:09:36;13.40;87.40
360;DHT22;168;48.872;9.226;2023-03-12T15:12:14;13.40;87.30
360;DHT22;168;48.872;9.226;2023-03-12T15:14:45;13.40;87.30
360;DHT22;168;48.872;9.226;2023-03-12T15:17:15;13.40;86.30
360;DHT22;168;48.872;9.226;2023-03-12T15:19:44;13.50;86.10
360;DHT22;168;48.872;9.226;2023-03-12T15:22:16;13.60;85.70
360;DHT22;168;48.872;9.226;2023-03-12T15:24:47;13.70;85.30
360;DHT22;168;48.872;9.226;2023-03-12T15:27:31;13.70;85.20
360;DHT22;168;48.872;9.226;2023-03-12T15:30:00;13.70;85.40
360;DHT22;168;48.872;9.226;2023-03-12T15:32:30;13.60;85.90
360;DHT22;168;48.872;9.226;2023-03-12T15:34:58;13.50;85.80
360;DHT22;168;48.872;9.226;2023-03-12T15:37:27;13.50;86.30
360;DHT22;168;48.872;9.226;2023-03-12T15:40:00;13.60;85.70
360;DHT22;168;48.872;9.226;2023-03-12T15:42:39;13.60;84.90
360;DHT22;168;48.872;9.226;2023-03-12T15:45:17;13.60;85.30
360;DHT22;168;48.872;9.226;2023-03-12T15:47:45;13.70;85.00
360;DHT22;168;48.872;9.226;2023-03-12T15:50:19;13.70;83.60
360;DHT22;168;48.872;9.226;2023-03-12T15:52:58;13.60;83.60
360;DHT22;168;48.872;9.226;2023-03-12T15:55:34;13.60;84.20
360;DHT22;168;48.872;9.226;2023-03-12T15:58:02;13.60;83.60
360;DHT22;168;48.872;9.226;2023-03-12T16:00:41;13.70;81.90
360;DHT22;168;48.872;9.226;2023-03-12T16:03:15;13.60;81.70
360;DHT22;168;48.872;9.226;2023-03-12T16:05:47;13.50;81.60
360;DHT22;168;48.872;9.226;2023-03-12T16:08:19;13.40;81.90
360;DHT22;168;48.872;9.226;2023-03-12T16:10:49;13.40;82.20
360;DHT22;168;48.872;9.226;2023-03-12T16:13:22;13.30;82.40
360;DHT22;168;48.872;9.226;2023-03-12T16:15:59;13.30;82.20
360;DHT22;168;48.872;9.226;2023-03-12T16:18:28;13.30;82.40
360;DHT22;168;48.872;9.226;2023-03-12T16:20:56;13.20;82.60
360;DHT22;168;48.872;9.226;2023-03-12T16:23:24;13.20;82.90
360;DHT22;168;48.872;9.226;2023-03-12T16:25:57;13.20;83.60
360;DHT22;168;48.872;9.226;2023-03-12T16:28:29;13.30;83.50
360;DHT22;168;48.872;9.226;2023-03-12T16:31:00;13.30;82.80
360;DHT22;168;48.872;9.226;2023-03-12T16:33:27;13.30;82.90
360;DHT22;168;48.872;9.226;2023-03-12T16:35:58;13.20;83.40
360;DHT22;168;48.872;9.226;2023-03-12T16:38:28;13.20;83.40
360;DHT22;168;48.872;9.226;2023-03-12T16:40:57;13.20;83.70
360;DHT22;168;48.872;9.226;2023-03-12T16:43:25;13.30;83.40
360;DHT22;168;48.872;9.226;2023-03-12T16:45:54;13.30;83.20
360;DHT22;168;48.872;9.226;2023-03-12T16:48:27;13.30;83.10
360;DHT22;168;48.872;9.226;2023-03-12T16:50:55;13.30;83.40
360;DHT22;168;48.872;9.226;2023-03-12T16:53:24;13.20;83.40
360;DHT22;168;48.872;9.226;2023-03-12T16:55:59;13.20;83.10
360;DHT22;168;48.872;9.226;2023-03-12T16:58:28;13.20;83.00
360;DHT22;168;48.872;9.226;2023-03-12T17:00:56;13.30;82.30
360;DHT22;168;48.872;9.226;2023-03-12T17:03:31;13.10;82.30
360;DHT22;168;48.872;9.226;2023-03-12T17:05:59;13.10;81.90
360;DHT22;168;48.872;9.226;2023-03-12T17:08:27;13.10;81.80
360;DHT22;168;48.872;9.226;2023-03-12T17:10:55;13.10;81.90